Time;durP1;ratioP1;P1;durP2;ratioP2;P2;SDS_P1;SDS_P2;PMS_P1;PMS_P2;Temp;Humidity;BMP_temperature;BMP_pressure;BME280_temperature;BME280_humidity;BME280_pressure;Samples;Min_cycle;Max_cycle;Signal;HPM_P1;HPM_P2
2023/02/20 00:09:39;;;;;;;4.87;3.07;;;1.60;96.00;;;;;;4652939;30;20249;-82
2023/02/20 00:29:43;;;;;;;9.17;3.73;;;1.90;92.90;;;;;;4620680;30;21609;-82
2023/02/20 00:55:25;;;;;;;9.20;3.67;;;2.00;90.80;;;;;;4708037;29;20227;-82
2023/02/20 01:15:38;;;;;;;6.07;3.20;;;2.00;90.60;;;;;;4654947;30;20218;-82
2023/02/20 01:40:50;;;;;;;6.87;3.57;;;1.80;91.40;;;;;;4626279;30;20572;-81
2023/02/20 02:01:08;;;;;;;8.47;3.67;;;2.00;90.50;;;;;;4606812;30;20310;-84
2023/02/20 02:36:39;;;;;;;5.73;2.67;;;2.10;90.70;;;;;;4579672;30;20777;-80
2023/02/20 04:43:35;;;;;;;6.70;3.20;;;1.40;94.20;;;;;;4784793;29;20264;-82
2023/02/20 04:47:56;;;;;;;4.77;2.90;;;1.40;94.00;;;;;;4746995;29;20791;-83
2023/02/20 05:08:51;;;;;;;5.63;3.37;;;1.60;94.20;;;;;;4674411;30;20384;-81
2023/02/20 05:28:58;;;;;;;5.20;3.37;;;2.10;93.00;;;;;;4604554;30;20235;-83
2023/02/20 05:59:34;;;;;;;6.87;3.13;;;2.30;93.00;;;;;;4733748;29;20247;-82
2023/02/20 06:24:58;;;;;;;8.67;3.27;;;2.50;92.00;;;;;;4676193;29;20262;-81
2023/02/20 06:45:13;;;;;;;7.00;3.23;;;2.80;92.10;;;;;;4512552;30;20856;-80
2023/02/20 07:20:04;;;;;;;7.83;4.17;;;3.60;90.80;;;;;;4515004;30;20629;-83
2023/02/20 07:51:03;;;;;;;7.30;3.63;;;4.30;90.10;;;;;;4764028;29;20792;-82
2023/02/20 08:31:12;;;;;;;8.03;4.03;;;4.80;90.40;;;;;;4740524;29;20815;-85
2023/02/20 09:01:35;;;;;;;7.70;4.43;;;4.10;99.40;;;;;;4721616;29;21148;-85
2023/02/20 09:27:15;;;;;;;10.97;5.90;;;3.50;99.90;;;;;;4702190;29;20216;-83
2023/02/20 09:52:58;;;;;;;15.17;8.77;;;3.40;99.90;;;;;;4717894;29;20247;-86
2023/02/20 10:28:29;;;;;;;14.30;9.07;;;2.90;99.90;;;;;;4765540;29;20341;-88
2023/02/20 10:43:13;;;;;;;15.30;9.33;;;2.50;99.90;;;;;;5907236;23;21511;-85
2023/02/20 11:08:20;;;;;;;14.47;10.63;;;2.60;99.90;;;;;;4735630;30;20219;-82
2023/02/20 11:59:36;;;;;;;17.27;11.57;;;3.20;99.90;;;;;;4771545;29;20303;-85
2023/02/20 12:03:57;;;;;;;16.30;11.23;;;3.20;99.90;;;;;;4741504;29;20289;-84
2023/02/20 12:39:36;;;;;;;16.77;11.47;;;4.80;99.90;;;;;;4657896;30;20379;-85
2023/02/20 13:04:46;;;;;;;15.43;9.77;;;5.40;99.90;;;;;;4637504;30;20593;-84
2023/02/20 13:30:01;;;;;;;15.53;11.20;;;5.70;99.90;;;;;;4609157;30;20260;-85
2023/02/20 13:40:51;;;;;;;13.40;10.20;;;6.00;99.90;;;;;;5921021;23;20506;31
2023/02/20 13:45:25;;;;;;;16.10;10.53;;;6.00;99.90;;;;;;4702934;30;20299;-82
2023/02/20 14:50:33;;;;;;;10.33;7.60;;;7.10;99.90;;;;;;4848624;29;20242;-82
2023/02/20 15:21:10;;;;;;;9.17;6.57;;;7.70;97.20;;;;;;4818142;29;20826;-81
2023/02/20 15:25:32;;;;;;;8.83;6.50;;;7.80;97.30;;;;;;4717466;29;20815;-84
2023/02/20 15:56:40;;;;;;;9.33;6.57;;;7.80;97.60;;;;;;4735262;30;20214;-84
2023/02/20 16:16:38;;;;;;;7.80;6.10;;;8.10;94.70;;;;;;5918312;23;20201;31
2023/02/20 16:36:49;;;;;;;5.73;4.97;;;8.30;94.80;;;;;;4776101;29;20216;-85
2023/02/20 16:46:49;;;;;;;6.80;5.27;;;8.30;94.80;;;;;;4838293;29;20216;-83
2023/02/20 17:01:54;;;;;;;9.57;6.63;;;8.00;99.90;;;;;;5693167;23;20318;-82
2023/02/20 17:16:50;;;;;;;9.40;7.13;;;7.50;99.90;;;;;;4863528;29;20202;-81
2023/02/20 17:41:03;;;;;;;9.07;7.50;;;7.50;99.90;;;;;;4839489;29;20614;-84
2023/02/20 17:51:27;;;;;;;8.40;7.23;;;7.50;99.90;;;;;;5753055;23;20238;-83
2023/02/20 18:01:06;;;;;;;9.67;7.90;;;7.70;99.90;;;;;;5876292;23;20770;-84
2023/02/20 18:46:32;;;;;;;10.43;8.93;;;7.60;99.90;;;;;;4726820;30;20811;-84
2023/02/20 19:22:22;;;;;;;13.33;10.17;;;7.70;99.90;;;;;;4790869;29;20230;-84
2023/02/20 19:52:36;;;;;;;14.77;10.57;;;7.60;99.90;;;;;;4601384;30;20229;-85
2023/02/20 20:13:05;;;;;;;15.47;11.37;;;7.70;99.90;;;;;;4597535;30;20245;-81
2023/02/20 20:38:08;;;;;;;15.83;11.63;;;7.50;99.90;;;;;;4618177;30;20203;-82
2023/02/20 21:08:37;;;;;;;15.30;11.67;;;7.60;99.90;;;;;;4677984;30;20249;-83
2023/02/20 21:28:30;;;;;;;10.70;8.10;;;7.70;99.90;;;;;;4706179;30;20469;-84
